createdAt,value
2022-11-08T00:00:22.982Z,4.35
2022-11-08T00:04:25.934Z,4.20
2022-11-08T00:08:45.976Z,6.00
2022-11-08T00:13:06.153Z,7.40
2022-11-08T00:17:07.583Z,6.25
2022-11-08T00:21:09.078Z,5.32
2022-11-08T00:25:11.417Z,4.07
2022-11-08T00:29:12.875Z,3.60
2022-11-08T00:33:14.394Z,3.75
2022-11-08T00:37:17.085Z,4.38
2022-11-08T00:41:18.567Z,3.83
2022-11-08T00:45:20.006Z,4.43
2022-11-08T00:49:21.926Z,4.32
2022-11-08T00:53:23.440Z,4.60
2022-11-08T00:57:41.144Z,4.32
2022-11-08T01:01:47.812Z,4.07
2022-11-08T01:05:51.477Z,3.83
2022-11-08T01:09:52.987Z,4.15
2022-11-08T01:13:59.431Z,3.88
2022-11-08T01:18:00.996Z,3.75
2022-11-08T01:22:02.873Z,2.97
2022-11-08T01:26:06.357Z,3.28
2022-11-08T01:30:09.831Z,4.05
2022-11-08T01:34:11.286Z,2.67
2022-11-08T01:38:13.227Z,2.28
2022-11-08T01:42:14.782Z,3.53
2022-11-08T01:46:21.061Z,3.10
2022-11-08T01:50:22.527Z,2.85
2022-11-08T01:54:42.698Z,2.70
2022-11-08T01:58:46.123Z,3.00
2022-11-08T02:02:53.890Z,3.15
2022-11-08T02:10:57.915Z,3.40
2022-11-08T02:14:59.706Z,3.53
2022-11-08T02:19:01.699Z,2.42
2022-11-08T02:23:14.450Z,2.70
2022-11-08T02:27:15.973Z,2.92
2022-11-08T02:31:19.115Z,2.80
2022-11-08T02:35:20.908Z,2.95
2022-11-08T02:39:22.982Z,3.00
2022-11-08T02:43:25.450Z,3.25
2022-11-08T02:47:26.932Z,3.35
2022-11-08T02:51:28.789Z,2.72
2022-11-08T02:55:30.742Z,2.60
2022-11-08T02:59:32.301Z,3.42
2022-11-08T03:03:33.909Z,2.40
2022-11-08T03:07:35.678Z,2.92
2022-11-08T03:11:37.330Z,3.83
2022-11-08T03:15:38.870Z,3.17
2022-11-08T03:19:40.499Z,2.70
2022-11-08T03:23:42.483Z,3.13
2022-11-08T03:27:43.909Z,2.92
2022-11-08T03:31:45.539Z,3.22
2022-11-08T03:35:48.568Z,3.60
2022-11-08T03:39:50.060Z,2.33
2022-11-08T03:43:51.482Z,3.00
2022-11-08T03:47:53.214Z,3.05
2022-11-08T03:51:54.803Z,3.17
2022-11-08T03:56:00.042Z,3.55
2022-11-08T04:00:01.904Z,3.33
2022-11-08T04:04:03.503Z,3.10
2022-11-08T04:08:05.354Z,3.55
2022-11-08T04:12:26.909Z,3.45
2022-11-08T04:16:30.592Z,3.08
2022-11-08T04:20:51.261Z,3.22
2022-11-08T04:24:52.704Z,3.17
2022-11-08T04:28:54.195Z,3.58
2022-11-08T04:32:55.780Z,3.58
2022-11-08T04:36:57.371Z,3.83
2022-11-08T04:41:05.651Z,3.47
2022-11-08T04:45:07.599Z,3.72
2022-11-08T04:49:09.016Z,3.30
2022-11-08T04:53:10.482Z,3.67
2022-11-08T04:57:12.058Z,4.13
2022-11-08T05:01:16.956Z,4.38
2022-11-08T05:05:18.774Z,3.45
2022-11-08T05:09:20.461Z,3.45
2022-11-08T05:13:22.128Z,3.55
2022-11-08T05:17:26.030Z,4.18
2022-11-08T05:21:46.239Z,3.85
2022-11-08T05:25:47.865Z,4.03
2022-11-08T05:29:49.459Z,3.70
2022-11-08T05:33:51.198Z,3.40
2022-11-08T05:37:52.832Z,3.55
2022-11-08T05:41:54.309Z,3.70
2022-11-08T05:45:55.814Z,3.50
2022-11-08T05:49:57.427Z,4.40
2022-11-08T05:53:58.928Z,4.22
2022-11-08T05:58:00.542Z,4.15
2022-11-08T06:02:02.299Z,4.07
2022-11-08T06:06:19.266Z,4.28
2022-11-08T06:10:21.542Z,3.47
2022-11-08T06:14:23.294Z,4.60
2022-11-08T06:18:24.970Z,4.50
2022-11-08T06:22:26.677Z,4.13
2022-11-08T06:26:28.263Z,4.40
2022-11-08T06:30:29.766Z,4.28
2022-11-08T06:34:31.405Z,4.07
2022-11-08T06:38:33.511Z,4.13
2022-11-08T06:42:34.993Z,5.38
2022-11-08T06:46:36.571Z,15.98
2022-11-08T06:50:38.072Z,14.35
2022-11-08T06:54:39.526Z,8.05
2022-11-08T06:58:41.374Z,5.68
2022-11-08T07:02:44.413Z,6.10
2022-11-08T07:06:45.964Z,5.43
2022-11-08T07:10:47.536Z,5.22
2022-11-08T07:14:49.562Z,5.15
2022-11-08T07:18:52.213Z,5.90
2022-11-08T07:22:57.430Z,5.65
2022-11-08T07:26:58.849Z,7.20
2022-11-08T07:31:02.906Z,5.82
2022-11-08T07:35:05.454Z,4.60
2022-11-08T07:39:07.098Z,6.00
2022-11-08T07:43:12.115Z,4.45
2022-11-08T07:47:24.958Z,4.03
2022-11-08T07:51:26.550Z,4.90
2022-11-08T07:55:28.221Z,5.47
2022-11-08T07:59:29.928Z,5.30
2022-11-08T08:03:31.521Z,5.45
2022-11-08T08:07:35.234Z,5.07
2022-11-08T08:11:36.845Z,4.22
2022-11-08T08:15:45.842Z,4.95
2022-11-08T08:19:47.417Z,4.50
2022-11-08T08:23:49.165Z,3.83
2022-11-08T08:27:53.279Z,3.58
2022-11-08T08:31:54.764Z,2.72
2022-11-08T08:35:56.597Z,3.03
2022-11-08T08:39:58.072Z,2.33
2022-11-08T08:43:59.541Z,2.60
2022-11-08T08:48:02.467Z,2.63
2022-11-08T08:52:04.058Z,2.10
2022-11-08T08:56:06.901Z,2.20
2022-11-08T09:04:36.862Z,1.70
2022-11-08T09:13:50.234Z,2.33
2022-11-08T09:23:40.635Z,2.63
2022-11-08T09:27:42.716Z,2.25
2022-11-08T09:31:50.507Z,3.00
2022-11-08T09:39:55.604Z,1.40
2022-11-08T09:44:15.320Z,1.67
2022-11-08T09:48:23.202Z,1.70
2022-11-08T09:56:37.098Z,1.10
2022-11-08T10:00:40.515Z,1.48
2022-11-08T10:04:42.030Z,0.95
2022-11-08T10:08:52.619Z,1.40
2022-11-08T10:13:09.266Z,1.63
2022-11-08T10:17:29.550Z,1.20
2022-11-08T10:22:12.206Z,1.20
2022-11-08T10:26:25.683Z,1.50
2022-11-08T10:30:37.714Z,1.55
2022-11-08T10:34:47.407Z,1.33
2022-11-08T10:39:05.100Z,1.65
2022-11-08T10:43:14.447Z,1.48
2022-11-08T10:47:22.319Z,1.48
2022-11-08T10:51:23.757Z,2.35
2022-11-08T10:55:40.430Z,1.83
2022-11-08T10:59:42.789Z,2.05
2022-11-08T11:03:47.296Z,1.20
2022-11-08T11:08:04.092Z,1.63
2022-11-08T11:12:07.849Z,1.43
2022-11-08T11:16:14.284Z,1.60
2022-11-08T11:20:22.585Z,1.20
2022-11-08T11:24:24.449Z,1.60
2022-11-08T11:28:25.922Z,1.52
2022-11-08T11:32:34.764Z,1.00
2022-11-08T11:36:36.746Z,1.13
2022-11-08T11:40:45.773Z,1.60
2022-11-08T11:45:08.927Z,1.45
2022-11-08T11:49:19.852Z,1.48
2022-11-08T11:53:28.996Z,1.10
2022-11-08T11:57:57.814Z,1.17
2022-11-08T12:02:33.425Z,0.98
2022-11-08T12:06:55.268Z,0.77
2022-11-08T12:11:34.641Z,1.08
2022-11-08T12:15:44.154Z,1.10
2022-11-08T12:20:26.944Z,0.90
2022-11-08T12:24:41.864Z,1.20
2022-11-08T12:28:54.035Z,1.00
2022-11-08T12:33:14.875Z,1.00
2022-11-08T12:37:26.697Z,1.08
2022-11-08T12:42:12.653Z,0.90
2022-11-08T12:46:20.967Z,1.02
2022-11-08T12:50:31.887Z,1.13
2022-11-08T12:54:37.079Z,1.17
2022-11-08T12:58:46.847Z,1.17
2022-11-08T13:03:02.370Z,0.98
2022-11-08T13:07:15.284Z,0.82
2022-11-08T13:11:25.093Z,1.00
2022-11-08T13:15:26.907Z,1.67
2022-11-08T13:19:30.427Z,0.80
2022-11-08T13:23:33.104Z,1.00
2022-11-08T13:27:40.332Z,0.80
2022-11-08T13:31:54.031Z,1.08
2022-11-08T13:36:31.105Z,1.30
2022-11-08T13:40:55.790Z,0.95
2022-11-08T13:44:59.156Z,1.10
2022-11-08T13:49:05.067Z,1.10
2022-11-08T13:53:19.092Z,0.90
2022-11-08T13:57:59.988Z,1.10
2022-11-08T14:02:05.953Z,2.42
2022-11-08T14:06:33.894Z,2.33
2022-11-08T14:11:01.651Z,1.02
2022-11-08T14:15:10.387Z,1.13
2022-11-08T14:19:23.539Z,1.10
2022-11-08T14:23:46.533Z,1.00
2022-11-08T14:27:48.008Z,0.88
2022-11-08T14:32:02.118Z,1.10
2022-11-08T14:36:07.335Z,1.58
2022-11-08T14:40:27.279Z,1.58
2022-11-08T14:44:29.728Z,1.50
2022-11-08T14:48:31.471Z,1.10
2022-11-08T14:52:33.960Z,1.25
2022-11-08T14:56:39.192Z,1.05
2022-11-08T15:00:46.028Z,1.35
2022-11-08T15:04:47.966Z,1.20
2022-11-08T15:08:54.931Z,1.20
2022-11-08T15:12:56.792Z,1.50
2022-11-08T15:17:02.882Z,1.40
2022-11-08T15:21:29.403Z,1.60
2022-11-08T15:25:35.044Z,1.58
2022-11-08T15:29:53.324Z,1.70
2022-11-08T15:33:54.863Z,2.17
2022-11-08T15:38:02.230Z,2.22
2022-11-08T15:42:11.198Z,2.80
2022-11-08T15:46:29.281Z,2.58
2022-11-08T15:50:31.762Z,2.72
2022-11-08T15:54:33.243Z,3.60
2022-11-08T15:58:36.610Z,3.33
2022-11-08T16:02:38.203Z,3.30
2022-11-08T16:06:40.148Z,4.45
2022-11-08T16:10:47.463Z,4.13
2022-11-08T16:14:49.081Z,3.60
2022-11-08T16:18:50.956Z,3.78
2022-11-08T16:22:52.641Z,3.50
2022-11-08T16:26:54.297Z,3.38
2022-11-08T16:30:58.785Z,6.32
2022-11-08T16:35:00.276Z,5.05
2022-11-08T16:39:01.930Z,5.43
2022-11-08T16:43:04.152Z,5.38
2022-11-08T16:47:05.674Z,5.88
2022-11-08T16:51:12.540Z,5.82
2022-11-08T16:55:17.770Z,6.97
2022-11-08T16:59:19.661Z,6.07
2022-11-08T17:03:23.127Z,4.95
2022-11-08T17:07:26.686Z,6.95
2022-11-08T17:11:28.221Z,5.40
2022-11-08T17:15:30.393Z,5.68
2022-11-08T17:19:31.990Z,4.07
2022-11-08T17:23:33.581Z,4.72
2022-11-08T17:27:35.109Z,4.60
2022-11-08T17:31:36.784Z,4.82
2022-11-08T17:35:42.618Z,4.80
2022-11-08T17:44:11.060Z,4.03
2022-11-08T17:48:13.926Z,3.72
2022-11-08T17:52:16.464Z,3.53
2022-11-08T17:56:18.058Z,4.03
2022-11-08T18:00:21.126Z,4.28
2022-11-08T18:04:22.629Z,3.22
2022-11-08T18:08:27.138Z,4.05
2022-11-08T18:12:28.796Z,5.28
2022-11-08T18:16:30.386Z,5.47
2022-11-08T18:24:39.090Z,4.68
2022-11-08T18:28:41.576Z,2.78
2022-11-08T18:32:45.869Z,3.10
2022-11-08T18:36:49.229Z,3.13
2022-11-08T18:40:51.302Z,2.80
2022-11-08T18:44:52.932Z,3.92
2022-11-08T18:48:55.271Z,3.03
2022-11-08T18:53:02.290Z,3.63
2022-11-08T18:57:05.056Z,3.58
2022-11-08T19:01:07.006Z,2.97
2022-11-08T19:05:08.573Z,3.60
2022-11-08T19:09:10.408Z,3.20
2022-11-08T19:13:12.291Z,3.65
2022-11-08T19:17:17.402Z,2.95
2022-11-08T19:21:21.198Z,3.53
2022-11-08T19:25:22.733Z,4.30
2022-11-08T19:29:24.505Z,3.70
2022-11-08T19:33:27.658Z,3.30
2022-11-08T19:37:29.313Z,2.60
2022-11-08T19:41:30.826Z,3.63
2022-11-08T19:45:33.002Z,3.58
2022-11-08T19:49:36.363Z,3.42
2022-11-08T19:53:37.980Z,3.40
2022-11-08T19:57:39.582Z,3.15
2022-11-08T20:01:41.251Z,3.53
2022-11-08T20:05:42.950Z,3.63
2022-11-08T20:09:44.461Z,4.15
2022-11-08T20:13:46.193Z,3.50
2022-11-08T20:17:47.690Z,3.70
2022-11-08T20:21:49.673Z,4.20
2022-11-08T20:25:51.311Z,3.35
2022-11-08T20:29:55.616Z,3.58
2022-11-08T20:33:57.095Z,3.65
2022-11-08T20:37:58.586Z,3.85
2022-11-08T20:42:00.169Z,3.60
2022-11-08T20:46:11.072Z,4.32
2022-11-08T20:50:12.809Z,4.50
2022-11-08T20:54:23.619Z,4.10
2022-11-08T20:59:13.076Z,4.18
2022-11-08T21:03:19.112Z,4.50
2022-11-08T21:12:08.140Z,4.03
2022-11-08T21:16:29.451Z,3.47
2022-11-08T21:20:32.217Z,4.15
2022-11-08T21:24:36.142Z,4.20
2022-11-08T21:28:38.365Z,4.45
2022-11-08T21:32:40.238Z,4.90
2022-11-08T21:36:41.634Z,3.92
2022-11-08T21:40:43.182Z,3.70
2022-11-08T21:44:44.774Z,3.72
2022-11-08T21:48:47.311Z,4.40
2022-11-08T21:52:49.096Z,3.80
2022-11-08T21:56:50.873Z,3.45
2022-11-08T22:00:52.881Z,3.88
2022-11-08T22:04:54.800Z,3.42
2022-11-08T22:08:56.791Z,3.92
2022-11-08T22:12:58.421Z,3.58
2022-11-08T22:16:59.910Z,3.80
2022-11-08T22:21:20.942Z,3.28
2022-11-08T22:25:22.567Z,3.72
2022-11-08T22:29:24.346Z,3.80
2022-11-08T22:33:25.922Z,3.63
2022-11-08T22:37:27.653Z,4.00
2022-11-08T22:41:29.214Z,3.53
2022-11-08T22:45:30.689Z,4.05
2022-11-08T22:49:35.319Z,3.35
2022-11-08T22:53:36.909Z,4.82
2022-11-08T22:57:38.465Z,2.72
2022-11-08T23:01:40.073Z,2.95
2022-11-08T23:05:42.778Z,3.72
2022-11-08T23:09:44.912Z,3.25
2022-11-08T23:14:05.157Z,3.63
2022-11-08T23:18:06.608Z,3.22
2022-11-08T23:22:30.627Z,3.28
2022-11-08T23:26:50.724Z,2.72
2022-11-08T23:31:11.506Z,2.60
2022-11-08T23:35:14.670Z,2.65
2022-11-08T23:39:16.440Z,3.03
2022-11-08T23:43:37.975Z,2.53
2022-11-08T23:47:39.539Z,3.15
2022-11-08T23:51:41.004Z,3.03
2022-11-08T23:55:42.830Z,2.75
2022-11-08T23:59:44.838Z,2.90
